Weather observations for the past three days for
University of Illinois - Willard
Metric (Imperial)
Date Time (cdt) Wind (kph) Vis. (km) Weather Sky Cond. Temperature (ºC) Relative Humidity Wind Chill (°C) Heat Index (°C) Pressure Precipitation (cm)
Air Dwpt 6 hour altimeter (cm) sea level (mb) 1 hr 3 hr 6 hr
Max. Min.
30 20:53 S 7 16.09 Fair CLR 23.9 18.9 74% 25 76.25 1015.9
30 19:53 S 11 16.09 Fair CLR 23.3 18.9 76% 76.23 1015.8
30 18:53 S 11 16.09 Fair CLR 25.6 21.1 31.1 25.6 76% 27 76.23 1015.8
30 17:53 SE 11 16.09 Fair CLR 27.8 21.1 67% 30 76.25 1015.9
30 16:53 S 7 16.09 Fair CLR 29.4 18.9 53% 31 76.25 1015.8
30 15:53 S 13 16.09 Fair CLR 30 18.9 51% 31 76.28 1016.3
30 14:53 S 17 16.09 Fair CLR 31.1 18.9 48% 32 76.33 1016.8
30 13:53 S 15 16.09 Fair CLR 30.6 20.6 55% 33 76.33 1017.0
30 12:53 S 11 16.09 Fair CLR 27.8 20.6 28.9 20 65% 30 76.4 1018.0
30 11:53 S 17 16.09 Fair CLR 28.3 20 61% 30 76.43 1018.4
30 10:53 S 11 16.09 Fair CLR 25 20 74% 26 76.4 1018.2
30 09:53 NE 6 16.09 Fair CLR 23.3 19.4 79% 76.45 1018.9
30 08:53 S 11 16.09 Mostly Cloudy BKN110 22.8 18.3 76% 76.38 1017.7
30 07:53 S 13 16.09 Partly Cloudy FEW100 SCT120 20.6 17.2 81% 76.35 1017.4
30 06:53 S 6 16.09 Mostly Cloudy BKN120 20 17.8 20.6 18.9 87% 76.35 1017.6
30 05:53 S 7 16.09 Fair CLR 19.4 17.2 87% 76.3 1016.9
30 04:53 S 11 16.09 Fair CLR 20 17.2 84% 76.3 1016.7
30 03:53 S 13 16.09 Fair CLR 20.6 17.2 81% 76.33 1017.1
30 02:53 S 11 16.09 Fair CLR 20 17.2 84% 76.33 1017.2
30 01:53 S 13 16.09 Fair CLR 20.6 17.2 81% 76.35 1017.5
30 00:53 SE 13 16.09 Fair CLR 20.6 17.2 22.2 18.9 81% 76.38 1017.9
29 23:53 SE 11 16.09 Fair CLR 20.6 16.7 78% 76.4 1018.0
29 22:53 SE 11 16.09 Fair CLR 20.6 16.7 78% 76.4 1018.0
29 21:53 SE 13 16.09 Fair CLR 20 17.2 84% 76.4 1018.0
29 20:53 SE 7 16.09 Fair CLR 19.4 17.8 91% 76.38 1017.9
29 19:53 SE 13 16.09 Fair CLR 21.1 18.9 87% 76.33 1017.2
29 18:53 E 7 16.09 Fair CLR 22.2 19.4 27.8 22.2 84% 76.38 1018.1
29 17:53 SE 11 16.09 Fair CLR 25 18.9 69% 26 76.38 1018.1
29 16:53 S 9 16.09 Fair CLR 26.1 18.9 65% 27 76.4 1018.4
29 15:53 S 9 16.09 Fair CLR 27.2 18.9 61% 28 76.45 1018.8
29 14:53 Vrbl 7 16.09 Fair CLR 26.7 17.2 56% 27 76.53 1019.8
29 13:53 S 11 16.09 Fair CLR 27.2 18.3 58% 28 76.56 1020.2
29 12:53 SE 15 16.09 Fair CLR 26.1 18.9 26.1 15 65% 27 76.61 1020.8
29 11:53 S 9 16.09 Fair CLR 25.6 19.4 69% 27 76.68 1021.8
29 10:53 Vrbl 6 16.09 Fair CLR 25 17.8 64% 26 76.71 1022.1
29 09:53 S 9 16.09 Fair CLR 23.9 18.3 71% 25 76.68 1022.0
29 08:53 S 7 16.09 Fair CLR 22.2 17.8 76% 76.68 1021.8
29 07:53 SE 6 16.09 Fair CLR 18.3 17.2 93% 76.66 1021.5
29 06:53 E 7 14.48 Fair CLR 15 14.4 17.2 14.4 96% 76.63 1021.2
29 05:53 E 7 16.09 Fair CLR 14.4 14.4 100% 76.58 1020.5
29 04:53 SE 9 16.09 Fair CLR 14.4 14.4 100% 76.58 1020.4
29 03:53 E 9 16.09 Fair CLR 15 14.4 96% 76.58 1020.6
29 02:53 E 7 16.09 Fair CLR 16.1 15 93% 76.58 1020.6
29 01:53 E 9 16.09 Fair CLR 16.7 15.6 93% 76.58 1020.6
29 00:53 E 6 16.09 Fair CLR 16.7 16.1 23.3 16.7 96% 76.61 1021.0
28 23:53 SE 7 16.09 Fair CLR 17.8 16.7 93% 76.61 1020.8
28 22:53 SE 7 16.09 Fair CLR 18.9 16.7 87% 76.58 1020.6
28 21:53 E 6 16.09 Fair CLR 19.4 17.8 91% 76.58 1020.4
28 20:53 SE 9 16.09 Fair CLR 20 17.8 87% 76.53 1019.8
28 19:53 S 6 8.05 Mostly Cloudy with Haze BKN050 21.7 18.9 84% 76.5 1019.5
28 18:53 E 6 16.09 Mostly Cloudy BKN050 23.9 20.6 28.3 23.3 82% 24 76.48 1019.4
28 17:53 SE 6 16.09 Fair CLR 25.6 20 71% 27 76.5 1019.7
28 16:53 SE 7 16.09 A Few Clouds FEW070 27.2 18.3 58% 28 76.5 1019.4
28 15:53 Calm 16.09 Partly Cloudy FEW055 SCT075 26.7 17.2 56% 27 76.53 1019.9
28 14:53 Calm 16.09 Fair CLR 26.7 16.7 54% 27 76.56 1020.3
28 13:53 Calm 16.09 Overcast BKN060 OVC075 27.8 16.1 49% 28 76.58 1020.7
28 12:53 Calm 16.09 A Few Clouds FEW075 26.7 18.9 27.8 16.7 62% 28 76.61 1021.0
28 11:53 Calm 16.09 Fair CLR 26.7 17.2 56% 27 76.66 1021.3
28 10:53 Calm 16.09 Fair CLR 25 17.2 62% 26 76.63 1021.3
28 09:53 SE 6 16.09 Fair CLR 23.9 17.2 66% 25 76.63 1021.1
28 08:53 E 7 16.09 Fair CLR 22.2 17.2 73% 76.63 1021.0
28 07:53 Calm 16.09 Fair CLR 20 17.8 87% 76.61 1020.8
28 06:53 E 6 16.09 Fair CLR 16.7 15.6 17.8 15 93% 76.56 1020.2
28 05:53 E 6 16.09 Fair CLR 15.6 15.6 100% 76.5 1019.7
28 04:53 NE 6 16.09 Fair CLR 16.7 16.1 96% 76.48 1019.1
28 03:53 Calm 16.09 Fair CLR 16.7 16.1 96% 76.45 1019.0
28 02:53 N 7 16.09 Fair CLR 16.7 16.1 96% 76.43 1018.5
28 01:53 Calm 16.09 Fair CLR 16.7 16.1 96% 76.4 1018.0
28 00:53 N 6 16.09 Fair CLR 17.8 16.7 23.3 17.2 93% 76.4 1018.1
27 23:53 N 7 16.09 Fair CLR 18.3 16.7 90% 76.38 1017.8
27 21:53 N 6 16.09 Fair CLR 19.4 17.2 87% 76.3 1016.9
Date Time (cdt) Wind (kph) Vis. (km) Weather Sky Cond. Air Dwpt Max. Min. Relative Humidity Wind Chill (°C) Heat Index (°C) altimeter (cm) sea level (mb) 1 hr 3 hr 6 hr
6 hour
Temperature (ºC) Pressure Precipitation (cm)